ドバイ の空港の天気 - METARとTAF

ドバイ国際空港 ( OMDB / DXB ) - アラブ首長国連邦 ドバイ
飛行場実況気象(Metar)
観測時間10/23 08:00 GST (10/23 04:00 UTC)
風向・風速南南西 4m/s
視程8000m
天気現象
なし
気温29℃
湿度70%
気圧1015hPa
METAROMDB 230400Z 20007KT 8000 NSC 29/23 Q1015 NOSIG
過去の天気等 Google飛行場航空写真 Wunderground天気予報

過去48時間のMETAR

飛行場予報(TAF)
発表時間: 10/23 03:01 GST (10/22 23:01 UTC)
予報対象時間: 23日4時 GST ~ 24日10時 GST
風向・風速南 3m/s
視程10km以上
なし
23日9時 GST ~ 23日11時 GST に徐々に
風向・風速西 7m/s
23日22時 GST ~ 23日24時 GST に徐々に
風向・風速南南西 3m/s
24日9時 GST ~ 24日10時 GST に徐々に
風向・風速西 8m/s
TAF OMDB 222301Z 2300/2406 19005KT CAVOK
BECMG 2305/2307 28014KT
BECMG 2318/2320 20005KT
BECMG 2405/2406 28015KT